首页
METAR-TAF:

METAR-TAF

机场 :

尚贝里 / 艾克斯-就业辅导组班, 法国

纬度: 45-39N, 经度: 005-53E, 海拔: 235米

当前天气观测

该预报发布于16分钟前的08:00 UTC
风速9节,风向
温度 7°C
湿度 70%
气压 1016 hPa
能见度10公里或以上
1500米以下无云,无积雨云

METAR: LFLB 030800Z AUTO 36009KT CAVOK 07/02 Q1016 NOSIG

时间: 10:16 (08:16 UTC)

预报

该预报发布于3小时和16分钟前的05:00 UTC
预报有效从03日的 06点(UTC)到 04日的 06点(UTC)
风速2节,风向多变
能见度10公里或以上
1500米以下无云,无积雨云
成为
从 03日的 07点(UTC)到 03日的 09点(UTC)
风速10节,风向

TAF: LFLB 030500Z 0306/0406 VRB02KT CAVOK BECMG 0307/0309 36010KT

超过4000个机场的气象观测和天气预报(METAR&TAF报告)。

可查询的气象台以黄色和红色小点在地图上表示。

将鼠标移到小点上方,可查看气象台名称。

然后点击查看天气观测和预报。

如需切换地图:点击带黑十字的绿色按钮放大地图;点击带横线的绿色按钮缩小地图;或者点击绿色箭头查看邻近地区的地图。


METAR-TAF: